sensor_id;sensor_type;location;lat;lon;timestamp;P1;durP1;ratioP1;P2;durP2;ratioP2
40917;SDS011;26644;50.248;19.032;2022-08-11T00:00:47;10.15;;;4.40;;
40917;SDS011;26644;50.248;19.032;2022-08-11T00:03:50;9.38;;;4.53;;
40917;SDS011;26644;50.248;19.032;2022-08-11T00:06:55;8.88;;;4.10;;
40917;SDS011;26644;50.248;19.032;2022-08-11T00:10:02;9.50;;;5.05;;
40917;SDS011;26644;50.248;19.032;2022-08-11T00:13:05;7.75;;;4.07;;
40917;SDS011;26644;50.248;19.032;2022-08-11T00:16:12;7.88;;;4.22;;
40917;SDS011;26644;50.248;19.032;2022-08-11T00:19:18;8.02;;;4.10;;
40917;SDS011;26644;50.248;19.032;2022-08-11T00:22:22;11.13;;;4.47;;
40917;SDS011;26644;50.248;19.032;2022-08-11T00:25:25;6.20;;;4.20;;
40917;SDS011;26644;50.248;19.032;2022-08-11T00:28:28;10.95;;;4.60;;
40917;SDS011;26644;50.248;19.032;2022-08-11T00:31:33;12.50;;;4.63;;
40917;SDS011;26644;50.248;19.032;2022-08-11T00:34:37;11.52;;;4.68;;
40917;SDS011;26644;50.248;19.032;2022-08-11T00:37:42;12.70;;;4.53;;
40917;SDS011;26644;50.248;19.032;2022-08-11T00:40:50;8.75;;;4.45;;
40917;SDS011;26644;50.248;19.032;2022-08-11T00:44:06;7.80;;;4.20;;
40917;SDS011;26644;50.248;19.032;2022-08-11T00:47:20;11.93;;;4.22;;
40917;SDS011;26644;50.248;19.032;2022-08-11T00:50:34;5.47;;;3.40;;
40917;SDS011;26644;50.248;19.032;2022-08-11T00:53:53;6.25;;;3.97;;
40917;SDS011;26644;50.248;19.032;2022-08-11T00:57:11;8.93;;;4.32;;
40917;SDS011;26644;50.248;19.032;2022-08-11T01:00:26;9.20;;;4.05;;
40917;SDS011;26644;50.248;19.032;2022-08-11T01:03:42;7.93;;;3.60;;
40917;SDS011;26644;50.248;19.032;2022-08-11T01:07:07;7.60;;;4.07;;
40917;SDS011;26644;50.248;19.032;2022-08-11T01:10:38;8.40;;;3.80;;
40917;SDS011;26644;50.248;19.032;2022-08-11T01:14:07;5.78;;;3.90;;
40917;SDS011;26644;50.248;19.032;2022-08-11T01:21:39;6.70;;;4.03;;
40917;SDS011;26644;50.248;19.032;2022-08-11T01:28:54;7.00;;;3.72;;
40917;SDS011;26644;50.248;19.032;2022-08-11T01:36:09;7.30;;;3.78;;
40917;SDS011;26644;50.248;19.032;2022-08-11T01:43:49;6.07;;;3.70;;
40917;SDS011;26644;50.248;19.032;2022-08-11T01:47:24;10.00;;;4.53;;
40917;SDS011;26644;50.248;19.032;2022-08-11T01:50:53;8.25;;;4.03;;
40917;SDS011;26644;50.248;19.032;2022-08-11T01:54:05;6.50;;;4.20;;
40917;SDS011;26644;50.248;19.032;2022-08-11T01:57:19;8.30;;;4.13;;
40917;SDS011;26644;50.248;19.032;2022-08-11T02:00:44;6.13;;;3.85;;
40917;SDS011;26644;50.248;19.032;2022-08-11T02:03:56;6.85;;;4.38;;
40917;SDS011;26644;50.248;19.032;2022-08-11T02:07:09;8.63;;;4.50;;
40917;SDS011;26644;50.248;19.032;2022-08-11T02:10:22;7.80;;;4.20;;
40917;SDS011;26644;50.248;19.032;2022-08-11T02:13:46;6.43;;;3.65;;
40917;SDS011;26644;50.248;19.032;2022-08-11T02:17:03;10.00;;;4.65;;
40917;SDS011;26644;50.248;19.032;2022-08-11T02:20:15;10.30;;;5.05;;
40917;SDS011;26644;50.248;19.032;2022-08-11T02:23:42;11.93;;;4.97;;
40917;SDS011;26644;50.248;19.032;2022-08-11T02:26:54;10.13;;;4.72;;
40917;SDS011;26644;50.248;19.032;2022-08-11T02:30:03;8.90;;;4.25;;
40917;SDS011;26644;50.248;19.032;2022-08-11T02:33:12;13.80;;;4.72;;
40917;SDS011;26644;50.248;19.032;2022-08-11T02:36:23;6.32;;;4.15;;
40917;SDS011;26644;50.248;19.032;2022-08-11T02:39:40;7.72;;;4.72;;
40917;SDS011;26644;50.248;19.032;2022-08-11T02:42:55;8.15;;;4.85;;
40917;SDS011;26644;50.248;19.032;2022-08-11T02:46:15;10.32;;;4.80;;
40917;SDS011;26644;50.248;19.032;2022-08-11T02:49:25;11.73;;;4.90;;
40917;SDS011;26644;50.248;19.032;2022-08-11T02:52:55;11.07;;;5.07;;
40917;SDS011;26644;50.248;19.032;2022-08-11T02:56:05;8.35;;;4.57;;
40917;SDS011;26644;50.248;19.032;2022-08-11T02:59:23;8.68;;;4.43;;
40917;SDS011;26644;50.248;19.032;2022-08-11T03:02:52;8.75;;;4.82;;
40917;SDS011;26644;50.248;19.032;2022-08-11T03:06:04;10.77;;;5.10;;
40917;SDS011;26644;50.248;19.032;2022-08-11T03:09:13;8.82;;;4.90;;
40917;SDS011;26644;50.248;19.032;2022-08-11T03:12:24;12.55;;;6.43;;
40917;SDS011;26644;50.248;19.032;2022-08-11T03:16:05;11.77;;;4.90;;
40917;SDS011;26644;50.248;19.032;2022-08-11T03:19:36;10.10;;;5.65;;
40917;SDS011;26644;50.248;19.032;2022-08-11T03:22:51;9.02;;;4.40;;
40917;SDS011;26644;50.248;19.032;2022-08-11T03:26:05;8.63;;;4.70;;
40917;SDS011;26644;50.248;19.032;2022-08-11T03:29:15;9.23;;;5.38;;
40917;SDS011;26644;50.248;19.032;2022-08-11T03:32:25;11.10;;;5.45;;
40917;SDS011;26644;50.248;19.032;2022-08-11T03:35:31;12.55;;;5.15;;
40917;SDS011;26644;50.248;19.032;2022-08-11T03:38:42;10.65;;;5.20;;
40917;SDS011;26644;50.248;19.032;2022-08-11T03:41:55;10.10;;;4.75;;
40917;SDS011;26644;50.248;19.032;2022-08-11T03:45:13;10.07;;;5.18;;
40917;SDS011;26644;50.248;19.032;2022-08-11T03:48:24;11.45;;;5.13;;
40917;SDS011;26644;50.248;19.032;2022-08-11T03:51:36;12.18;;;5.00;;
40917;SDS011;26644;50.248;19.032;2022-08-11T03:54:53;9.48;;;5.07;;
40917;SDS011;26644;50.248;19.032;2022-08-11T03:58:12;9.27;;;4.97;;
40917;SDS011;26644;50.248;19.032;2022-08-11T04:01:54;10.13;;;5.75;;
40917;SDS011;26644;50.248;19.032;2022-08-11T04:08:54;10.00;;;5.07;;
40917;SDS011;26644;50.248;19.032;2022-08-11T04:12:28;11.43;;;5.07;;
40917;SDS011;26644;50.248;19.032;2022-08-11T04:16:06;12.50;;;6.25;;
40917;SDS011;26644;50.248;19.032;2022-08-11T04:19:21;8.90;;;4.90;;
40917;SDS011;26644;50.248;19.032;2022-08-11T04:22:56;10.43;;;4.95;;
40917;SDS011;26644;50.248;19.032;2022-08-11T04:26:46;8.30;;;5.03;;
40917;SDS011;26644;50.248;19.032;2022-08-11T04:30:08;10.65;;;5.10;;
40917;SDS011;26644;50.248;19.032;2022-08-11T04:36:56;11.45;;;5.50;;
40917;SDS011;26644;50.248;19.032;2022-08-11T04:40:38;10.85;;;4.65;;
40917;SDS011;26644;50.248;19.032;2022-08-11T04:44:13;13.07;;;5.57;;
40917;SDS011;26644;50.248;19.032;2022-08-11T04:47:44;7.65;;;5.10;;
40917;SDS011;26644;50.248;19.032;2022-08-11T04:51:20;8.40;;;4.95;;
40917;SDS011;26644;50.248;19.032;2022-08-11T04:54:52;11.88;;;5.18;;
40917;SDS011;26644;50.248;19.032;2022-08-11T04:58:23;14.52;;;6.47;;
40917;SDS011;26644;50.248;19.032;2022-08-11T05:02:11;16.42;;;6.88;;
40917;SDS011;26644;50.248;19.032;2022-08-11T05:05:42;17.30;;;7.10;;
40917;SDS011;26644;50.248;19.032;2022-08-11T05:09:02;15.15;;;7.47;;
40917;SDS011;26644;50.248;19.032;2022-08-11T05:12:21;15.25;;;6.32;;
40917;SDS011;26644;50.248;19.032;2022-08-11T05:15:33;11.68;;;6.05;;
40917;SDS011;26644;50.248;19.032;2022-08-11T05:19:04;14.82;;;6.18;;
40917;SDS011;26644;50.248;19.032;2022-08-11T05:22:26;13.95;;;5.85;;
40917;SDS011;26644;50.248;19.032;2022-08-11T05:25:51;12.45;;;6.15;;
40917;SDS011;26644;50.248;19.032;2022-08-11T05:33:11;18.65;;;6.80;;
40917;SDS011;26644;50.248;19.032;2022-08-11T05:36:35;15.00;;;7.60;;
40917;SDS011;26644;50.248;19.032;2022-08-11T05:39:44;14.73;;;6.43;;
40917;SDS011;26644;50.248;19.032;2022-08-11T05:43:07;14.80;;;5.82;;
40917;SDS011;26644;50.248;19.032;2022-08-11T05:46:36;13.95;;;7.13;;
40917;SDS011;26644;50.248;19.032;2022-08-11T05:49:58;16.67;;;7.30;;
40917;SDS011;26644;50.248;19.032;2022-08-11T05:56:41;16.45;;;7.30;;
40917;SDS011;26644;50.248;19.032;2022-08-11T05:59:45;13.93;;;6.47;;
40917;SDS011;26644;50.248;19.032;2022-08-11T06:02:48;19.55;;;7.28;;
40917;SDS011;26644;50.248;19.032;2022-08-11T06:06:00;18.23;;;7.68;;
40917;SDS011;26644;50.248;19.032;2022-08-11T06:09:09;22.42;;;8.93;;
40917;SDS011;26644;50.248;19.032;2022-08-11T06:12:15;20.70;;;8.15;;
40917;SDS011;26644;50.248;19.032;2022-08-11T06:15:18;18.75;;;7.85;;
40917;SDS011;26644;50.248;19.032;2022-08-11T06:18:20;21.95;;;8.55;;
40917;SDS011;26644;50.248;19.032;2022-08-11T06:21:25;21.80;;;8.73;;
40917;SDS011;26644;50.248;19.032;2022-08-11T06:24:27;22.92;;;8.48;;
40917;SDS011;26644;50.248;19.032;2022-08-11T06:27:32;18.52;;;8.45;;
40917;SDS011;26644;50.248;19.032;2022-08-11T06:30:36;18.50;;;7.78;;
40917;SDS011;26644;50.248;19.032;2022-08-11T06:33:47;22.05;;;9.02;;
40917;SDS011;26644;50.248;19.032;2022-08-11T06:36:59;23.77;;;9.40;;
40917;SDS011;26644;50.248;19.032;2022-08-11T06:40:21;21.10;;;8.57;;
40917;SDS011;26644;50.248;19.032;2022-08-11T06:43:31;22.38;;;8.98;;
40917;SDS011;26644;50.248;19.032;2022-08-11T06:46:47;18.40;;;8.55;;
40917;SDS011;26644;50.248;19.032;2022-08-11T06:49:51;20.05;;;8.15;;
40917;SDS011;26644;50.248;19.032;2022-08-11T06:53:19;19.55;;;8.82;;
40917;SDS011;26644;50.248;19.032;2022-08-11T06:56:22;16.02;;;7.72;;
40917;SDS011;26644;50.248;19.032;2022-08-11T06:59:44;19.23;;;7.45;;
40917;SDS011;26644;50.248;19.032;2022-08-11T07:03:06;19.83;;;8.15;;
40917;SDS011;26644;50.248;19.032;2022-08-11T07:06:17;25.23;;;7.35;;
40917;SDS011;26644;50.248;19.032;2022-08-11T07:09:36;15.60;;;6.33;;
40917;SDS011;26644;50.248;19.032;2022-08-11T07:13:15;14.32;;;5.55;;
40917;SDS011;26644;50.248;19.032;2022-08-11T07:16:40;13.70;;;5.00;;
40917;SDS011;26644;50.248;19.032;2022-08-11T07:19:46;15.35;;;5.32;;
40917;SDS011;26644;50.248;19.032;2022-08-11T07:23:11;15.40;;;5.95;;
40917;SDS011;26644;50.248;19.032;2022-08-11T07:26:34;9.60;;;4.13;;
40917;SDS011;26644;50.248;19.032;2022-08-11T07:29:53;9.18;;;3.58;;
40917;SDS011;26644;50.248;19.032;2022-08-11T07:32:58;10.32;;;3.95;;
40917;SDS011;26644;50.248;19.032;2022-08-11T07:36:02;11.15;;;4.18;;
40917;SDS011;26644;50.248;19.032;2022-08-11T07:39:07;8.15;;;3.03;;
40917;SDS011;26644;50.248;19.032;2022-08-11T07:42:17;11.98;;;3.50;;
40917;SDS011;26644;50.248;19.032;2022-08-11T07:45:22;10.68;;;3.45;;
40917;SDS011;26644;50.248;19.032;2022-08-11T07:48:43;12.80;;;3.63;;
40917;SDS011;26644;50.248;19.032;2022-08-11T07:52:03;7.40;;;4.05;;
40917;SDS011;26644;50.248;19.032;2022-08-11T07:55:23;4.88;;;2.67;;
40917;SDS011;26644;50.248;19.032;2022-08-11T07:58:28;8.95;;;3.47;;
40917;SDS011;26644;50.248;19.032;2022-08-11T08:01:48;7.40;;;3.60;;
40917;SDS011;26644;50.248;19.032;2022-08-11T08:05:08;7.43;;;3.25;;
40917;SDS011;26644;50.248;19.032;2022-08-11T08:08:28;6.07;;;3.30;;
40917;SDS011;26644;50.248;19.032;2022-08-11T08:11:48;5.03;;;3.35;;
40917;SDS011;26644;50.248;19.032;2022-08-11T08:15:10;5.20;;;3.25;;
40917;SDS011;26644;50.248;19.032;2022-08-11T08:18:32;8.45;;;3.22;;
40917;SDS011;26644;50.248;19.032;2022-08-11T08:21:34;6.63;;;3.30;;
40917;SDS011;26644;50.248;19.032;2022-08-11T08:24:36;4.80;;;3.13;;
40917;SDS011;26644;50.248;19.032;2022-08-11T08:27:41;6.20;;;3.20;;
40917;SDS011;26644;50.248;19.032;2022-08-11T08:30:46;7.85;;;3.47;;
40917;SDS011;26644;50.248;19.032;2022-08-11T08:33:51;12.85;;;3.65;;
40917;SDS011;26644;50.248;19.032;2022-08-11T08:36:54;5.57;;;2.40;;
40917;SDS011;26644;50.248;19.032;2022-08-11T08:39:56;8.00;;;3.55;;
40917;SDS011;26644;50.248;19.032;2022-08-11T08:43:01;7.18;;;3.45;;
40917;SDS011;26644;50.248;19.032;2022-08-11T08:46:08;6.03;;;2.65;;
40917;SDS011;26644;50.248;19.032;2022-08-11T08:49:13;4.65;;;1.95;;
40917;SDS011;26644;50.248;19.032;2022-08-11T08:52:19;7.78;;;2.58;;
40917;SDS011;26644;50.248;19.032;2022-08-11T08:55:24;2.95;;;2.15;;
40917;SDS011;26644;50.248;19.032;2022-08-11T08:58:29;3.20;;;1.98;;
40917;SDS011;26644;50.248;19.032;2022-08-11T09:01:37;3.75;;;1.90;;
40917;SDS011;26644;50.248;19.032;2022-08-11T09:04:43;3.83;;;2.43;;
40917;SDS011;26644;50.248;19.032;2022-08-11T09:07:48;8.52;;;2.65;;
40917;SDS011;26644;50.248;19.032;2022-08-11T09:10:57;5.25;;;2.03;;
40917;SDS011;26644;50.248;19.032;2022-08-11T09:14:18;2.78;;;1.38;;
40917;SDS011;26644;50.248;19.032;2022-08-11T09:17:24;1.52;;;1.10;;
40917;SDS011;26644;50.248;19.032;2022-08-11T09:20:28;5.10;;;1.38;;
40917;SDS011;26644;50.248;19.032;2022-08-11T09:23:33;1.58;;;1.10;;
40917;SDS011;26644;50.248;19.032;2022-08-11T09:26:53;4.22;;;1.83;;
40917;SDS011;26644;50.248;19.032;2022-08-11T09:30:03;1.58;;;1.33;;
40917;SDS011;26644;50.248;19.032;2022-08-11T09:33:08;5.63;;;2.65;;
40917;SDS011;26644;50.248;19.032;2022-08-11T09:36:12;4.45;;;2.13;;
40917;SDS011;26644;50.248;19.032;2022-08-11T09:39:32;7.15;;;1.35;;
40917;SDS011;26644;50.248;19.032;2022-08-11T09:42:55;1.67;;;1.40;;
40917;SDS011;26644;50.248;19.032;2022-08-11T09:46:15;3.88;;;1.50;;
40917;SDS011;26644;50.248;19.032;2022-08-11T09:49:27;2.60;;;1.40;;
40917;SDS011;26644;50.248;19.032;2022-08-11T09:52:31;4.05;;;1.70;;
40917;SDS011;26644;50.248;19.032;2022-08-11T09:55:36;4.13;;;1.73;;
40917;SDS011;26644;50.248;19.032;2022-08-11T09:58:41;3.45;;;1.92;;
40917;SDS011;26644;50.248;19.032;2022-08-11T10:01:44;5.07;;;2.00;;
40917;SDS011;26644;50.248;19.032;2022-08-11T10:04:49;3.15;;;1.85;;
40917;SDS011;26644;50.248;19.032;2022-08-11T10:08:17;5.20;;;1.90;;
40917;SDS011;26644;50.248;19.032;2022-08-11T10:11:20;2.33;;;1.52;;
40917;SDS011;26644;50.248;19.032;2022-08-11T10:14:25;4.57;;;2.03;;
40917;SDS011;26644;50.248;19.032;2022-08-11T10:17:46;5.35;;;2.20;;
40917;SDS011;26644;50.248;19.032;2022-08-11T10:21:06;2.78;;;2.05;;
40917;SDS011;26644;50.248;19.032;2022-08-11T10:24:10;2.22;;;1.88;;
40917;SDS011;26644;50.248;19.032;2022-08-11T10:27:42;8.20;;;4.28;;
40917;SDS011;26644;50.248;19.032;2022-08-11T10:30:44;7.68;;;2.22;;
40917;SDS011;26644;50.248;19.032;2022-08-11T10:34:05;4.45;;;1.80;;
40917;SDS011;26644;50.248;19.032;2022-08-11T10:37:10;3.75;;;1.65;;
40917;SDS011;26644;50.248;19.032;2022-08-11T10:40:13;2.08;;;1.33;;
40917;SDS011;26644;50.248;19.032;2022-08-11T10:43:16;2.88;;;1.27;;
40917;SDS011;26644;50.248;19.032;2022-08-11T10:46:18;2.03;;;1.25;;
40917;SDS011;26644;50.248;19.032;2022-08-11T10:49:38;1.88;;;1.33;;
40917;SDS011;26644;50.248;19.032;2022-08-11T10:52:42;3.60;;;1.50;;
40917;SDS011;26644;50.248;19.032;2022-08-11T10:56:05;4.68;;;1.48;;
40917;SDS011;26644;50.248;19.032;2022-08-11T10:59:26;4.10;;;1.30;;
40917;SDS011;26644;50.248;19.032;2022-08-11T11:02:30;7.50;;;1.70;;
40917;SDS011;26644;50.248;19.032;2022-08-11T11:05:32;3.35;;;1.50;;
40917;SDS011;26644;50.248;19.032;2022-08-11T11:08:41;1.60;;;1.25;;
40917;SDS011;26644;50.248;19.032;2022-08-11T11:11:53;4.25;;;1.40;;
40917;SDS011;26644;50.248;19.032;2022-08-11T11:15:17;1.92;;;1.25;;
40917;SDS011;26644;50.248;19.032;2022-08-11T11:18:39;2.10;;;1.20;;
40917;SDS011;26644;50.248;19.032;2022-08-11T11:21:42;3.15;;;1.17;;
40917;SDS011;26644;50.248;19.032;2022-08-11T11:24:50;1.63;;;1.10;;
40917;SDS011;26644;50.248;19.032;2022-08-11T11:28:07;2.70;;;1.33;;
40917;SDS011;26644;50.248;19.032;2022-08-11T11:31:22;3.63;;;1.52;;
40917;SDS011;26644;50.248;19.032;2022-08-11T11:34:37;2.08;;;1.30;;
40917;SDS011;26644;50.248;19.032;2022-08-11T11:37:52;3.25;;;1.45;;
40917;SDS011;26644;50.248;19.032;2022-08-11T11:40:57;2.30;;;1.30;;
40917;SDS011;26644;50.248;19.032;2022-08-11T11:44:17;2.65;;;1.40;;
40917;SDS011;26644;50.248;19.032;2022-08-11T11:47:22;2.80;;;1.35;;
40917;SDS011;26644;50.248;19.032;2022-08-11T11:50:25;4.45;;;1.33;;
40917;SDS011;26644;50.248;19.032;2022-08-11T11:53:28;2.38;;;1.40;;
40917;SDS011;26644;50.248;19.032;2022-08-11T11:56:31;4.93;;;1.65;;
40917;SDS011;26644;50.248;19.032;2022-08-11T11:59:35;2.65;;;1.30;;
40917;SDS011;26644;50.248;19.032;2022-08-11T12:02:51;1.85;;;1.00;;
40917;SDS011;26644;50.248;19.032;2022-08-11T12:05:54;1.92;;;1.30;;
40917;SDS011;26644;50.248;19.032;2022-08-11T12:08:57;3.00;;;1.00;;
40917;SDS011;26644;50.248;19.032;2022-08-11T12:12:02;2.58;;;1.00;;
40917;SDS011;26644;50.248;19.032;2022-08-11T12:15:23;2.00;;;1.38;;
40917;SDS011;26644;50.248;19.032;2022-08-11T12:18:25;1.65;;;0.85;;
40917;SDS011;26644;50.248;19.032;2022-08-11T12:21:28;3.25;;;1.13;;
40917;SDS011;26644;50.248;19.032;2022-08-11T12:24:31;2.38;;;0.90;;
40917;SDS011;26644;50.248;19.032;2022-08-11T12:27:53;1.45;;;0.93;;
40917;SDS011;26644;50.248;19.032;2022-08-11T12:30:56;3.88;;;1.17;;
40917;SDS011;26644;50.248;19.032;2022-08-11T12:33:59;3.22;;;1.20;;
40917;SDS011;26644;50.248;19.032;2022-08-11T12:37:02;3.53;;;1.40;;
40917;SDS011;26644;50.248;19.032;2022-08-11T12:40:10;2.08;;;0.90;;
40917;SDS011;26644;50.248;19.032;2022-08-11T12:43:32;1.13;;;0.90;;
40917;SDS011;26644;50.248;19.032;2022-08-11T12:46:53;1.15;;;0.88;;
40917;SDS011;26644;50.248;19.032;2022-08-11T12:49:59;0.80;;;0.80;;
40917;SDS011;26644;50.248;19.032;2022-08-11T12:53:20;1.27;;;1.17;;
40917;SDS011;26644;50.248;19.032;2022-08-11T12:56:26;2.33;;;0.85;;
40917;SDS011;26644;50.248;19.032;2022-08-11T12:59:51;2.65;;;0.90;;
40917;SDS011;26644;50.248;19.032;2022-08-11T13:03:12;0.70;;;0.70;;
40917;SDS011;26644;50.248;19.032;2022-08-11T13:06:32;2.10;;;0.80;;
40917;SDS011;26644;50.248;19.032;2022-08-11T13:09:34;1.27;;;0.65;;
40917;SDS011;26644;50.248;19.032;2022-08-11T13:12:37;1.75;;;0.95;;
40917;SDS011;26644;50.248;19.032;2022-08-11T13:15:50;2.08;;;0.90;;
40917;SDS011;26644;50.248;19.032;2022-08-11T13:18:52;1.13;;;0.80;;
40917;SDS011;26644;50.248;19.032;2022-08-11T13:21:55;0.98;;;0.70;;
40917;SDS011;26644;50.248;19.032;2022-08-11T13:24:58;2.65;;;1.33;;
40917;SDS011;26644;50.248;19.032;2022-08-11T13:28:00;3.38;;;1.25;;
40917;SDS011;26644;50.248;19.032;2022-08-11T13:31:04;4.05;;;1.25;;
40917;SDS011;26644;50.248;19.032;2022-08-11T13:34:14;1.77;;;0.95;;
40917;SDS011;26644;50.248;19.032;2022-08-11T13:37:17;4.63;;;0.80;;
40917;SDS011;26644;50.248;19.032;2022-08-11T13:40:21;1.63;;;1.27;;
40917;SDS011;26644;50.248;19.032;2022-08-11T13:43:24;3.85;;;2.30;;
40917;SDS011;26644;50.248;19.032;2022-08-11T13:46:29;2.95;;;1.70;;
40917;SDS011;26644;50.248;19.032;2022-08-11T13:49:32;1.42;;;0.85;;
40917;SDS011;26644;50.248;19.032;2022-08-11T13:52:37;0.93;;;0.88;;
40917;SDS011;26644;50.248;19.032;2022-08-11T13:55:40;1.85;;;0.75;;
40917;SDS011;26644;50.248;19.032;2022-08-11T13:58:43;8.82;;;1.45;;
40917;SDS011;26644;50.248;19.032;2022-08-11T14:01:47;18.98;;;2.22;;
40917;SDS011;26644;50.248;19.032;2022-08-11T14:04:52;39.05;;;3.72;;
40917;SDS011;26644;50.248;19.032;2022-08-11T14:07:58;13.05;;;2.05;;
40917;SDS011;26644;50.248;19.032;2022-08-11T14:11:02;13.50;;;2.35;;
40917;SDS011;26644;50.248;19.032;2022-08-11T14:14:25;17.15;;;2.53;;
40917;SDS011;26644;50.248;19.032;2022-08-11T14:17:34;8.75;;;2.72;;
40917;SDS011;26644;50.248;19.032;2022-08-11T14:20:39;4.47;;;1.98;;
40917;SDS011;26644;50.248;19.032;2022-08-11T14:24:01;4.50;;;1.73;;
40917;SDS011;26644;50.248;19.032;2022-08-11T14:27:04;4.88;;;2.25;;
40917;SDS011;26644;50.248;19.032;2022-08-11T14:30:08;6.75;;;2.17;;
40917;SDS011;26644;50.248;19.032;2022-08-11T14:33:33;4.15;;;2.20;;
40917;SDS011;26644;50.248;19.032;2022-08-11T14:36:37;4.68;;;2.28;;
40917;SDS011;26644;50.248;19.032;2022-08-11T14:39:43;3.97;;;2.15;;
40917;SDS011;26644;50.248;19.032;2022-08-11T14:42:47;4.28;;;2.88;;
40917;SDS011;26644;50.248;19.032;2022-08-11T14:46:06;4.13;;;2.45;;
40917;SDS011;26644;50.248;19.032;2022-08-11T14:49:27;5.90;;;2.25;;
40917;SDS011;26644;50.248;19.032;2022-08-11T14:52:30;8.40;;;2.20;;
40917;SDS011;26644;50.248;19.032;2022-08-11T14:55:36;4.28;;;2.47;;
40917;SDS011;26644;50.248;19.032;2022-08-11T14:58:57;4.60;;;2.08;;
40917;SDS011;26644;50.248;19.032;2022-08-11T15:02:01;6.55;;;2.03;;
40917;SDS011;26644;50.248;19.032;2022-08-11T15:05:24;5.40;;;2.28;;
40917;SDS011;26644;50.248;19.032;2022-08-11T15:08:27;3.03;;;2.20;;
40917;SDS011;26644;50.248;19.032;2022-08-11T15:11:48;7.47;;;2.70;;
40917;SDS011;26644;50.248;19.032;2022-08-11T15:15:09;7.95;;;3.22;;
40917;SDS011;26644;50.248;19.032;2022-08-11T15:18:29;4.40;;;2.35;;
40917;SDS011;26644;50.248;19.032;2022-08-11T15:21:33;3.60;;;2.30;;
40917;SDS011;26644;50.248;19.032;2022-08-11T15:24:53;7.72;;;2.70;;
40917;SDS011;26644;50.248;19.032;2022-08-11T15:27:55;7.13;;;3.00;;
40917;SDS011;26644;50.248;19.032;2022-08-11T15:31:15;7.15;;;3.03;;
40917;SDS011;26644;50.248;19.032;2022-08-11T15:34:36;4.90;;;2.75;;
40917;SDS011;26644;50.248;19.032;2022-08-11T15:38:00;4.55;;;2.75;;
40917;SDS011;26644;50.248;19.032;2022-08-11T15:41:03;7.10;;;3.08;;
40917;SDS011;26644;50.248;19.032;2022-08-11T15:44:26;4.68;;;2.70;;
40917;SDS011;26644;50.248;19.032;2022-08-11T15:47:55;5.50;;;3.10;;
40917;SDS011;26644;50.248;19.032;2022-08-11T15:51:01;10.50;;;3.45;;
40917;SDS011;26644;50.248;19.032;2022-08-11T15:54:10;8.88;;;3.83;;
40917;SDS011;26644;50.248;19.032;2022-08-11T15:57:14;10.95;;;4.95;;
40917;SDS011;26644;50.248;19.032;2022-08-11T16:00:33;6.10;;;3.40;;
40917;SDS011;26644;50.248;19.032;2022-08-11T16:03:56;4.13;;;3.38;;
40917;SDS011;26644;50.248;19.032;2022-08-11T16:07:15;6.47;;;2.97;;
40917;SDS011;26644;50.248;19.032;2022-08-11T16:10:26;4.40;;;3.00;;
40917;SDS011;26644;50.248;19.032;2022-08-11T16:13:29;6.32;;;3.78;;
40917;SDS011;26644;50.248;19.032;2022-08-11T16:16:50;7.40;;;4.13;;
40917;SDS011;26644;50.248;19.032;2022-08-11T16:19:54;11.40;;;3.65;;
40917;SDS011;26644;50.248;19.032;2022-08-11T16:22:58;6.00;;;2.35;;
40917;SDS011;26644;50.248;19.032;2022-08-11T16:26:04;6.28;;;2.30;;
40917;SDS011;26644;50.248;19.032;2022-08-11T16:29:08;4.13;;;2.10;;
40917;SDS011;26644;50.248;19.032;2022-08-11T16:32:12;3.85;;;2.50;;
40917;SDS011;26644;50.248;19.032;2022-08-11T16:35:18;6.97;;;3.03;;
40917;SDS011;26644;50.248;19.032;2022-08-11T16:38:40;5.97;;;2.33;;
40917;SDS011;26644;50.248;19.032;2022-08-11T16:41:45;8.50;;;3.13;;
40917;SDS011;26644;50.248;19.032;2022-08-11T16:45:07;9.13;;;3.00;;
40917;SDS011;26644;50.248;19.032;2022-08-11T16:48:29;7.57;;;2.95;;
40917;SDS011;26644;50.248;19.032;2022-08-11T16:51:32;7.65;;;3.75;;
40917;SDS011;26644;50.248;19.032;2022-08-11T16:54:35;9.32;;;4.72;;
40917;SDS011;26644;50.248;19.032;2022-08-11T16:57:39;6.55;;;3.38;;
40917;SDS011;26644;50.248;19.032;2022-08-11T17:00:59;6.78;;;3.40;;
40917;SDS011;26644;50.248;19.032;2022-08-11T17:04:06;12.20;;;4.28;;
40917;SDS011;26644;50.248;19.032;2022-08-11T17:07:35;7.63;;;3.45;;
40917;SDS011;26644;50.248;19.032;2022-08-11T17:10:58;12.70;;;5.75;;
40917;SDS011;26644;50.248;19.032;2022-08-11T17:14:22;11.40;;;4.78;;
40917;SDS011;26644;50.248;19.032;2022-08-11T17:17:27;12.77;;;4.82;;
40917;SDS011;26644;50.248;19.032;2022-08-11T17:20:33;13.55;;;5.30;;
40917;SDS011;26644;50.248;19.032;2022-08-11T17:23:37;12.32;;;5.63;;
40917;SDS011;26644;50.248;19.032;2022-08-11T17:26:47;15.63;;;5.70;;
40917;SDS011;26644;50.248;19.032;2022-08-11T17:30:00;15.52;;;6.43;;
40917;SDS011;26644;50.248;19.032;2022-08-11T17:33:04;12.38;;;5.20;;
40917;SDS011;26644;50.248;19.032;2022-08-11T17:36:26;12.80;;;6.43;;
40917;SDS011;26644;50.248;19.032;2022-08-11T17:39:28;17.60;;;5.85;;
40917;SDS011;26644;50.248;19.032;2022-08-11T17:42:32;15.43;;;6.53;;
40917;SDS011;26644;50.248;19.032;2022-08-11T17:45:54;13.68;;;6.25;;
40917;SDS011;26644;50.248;19.032;2022-08-11T17:49:14;13.10;;;6.78;;
40917;SDS011;26644;50.248;19.032;2022-08-11T17:52:19;19.17;;;7.75;;
40917;SDS011;26644;50.248;19.032;2022-08-11T17:55:42;17.50;;;7.35;;
40917;SDS011;26644;50.248;19.032;2022-08-11T17:59:02;16.00;;;6.95;;
40917;SDS011;26644;50.248;19.032;2022-08-11T18:02:27;17.15;;;6.68;;
40917;SDS011;26644;50.248;19.032;2022-08-11T18:05:48;13.93;;;6.57;;
40917;SDS011;26644;50.248;19.032;2022-08-11T18:08:51;22.20;;;6.93;;
40917;SDS011;26644;50.248;19.032;2022-08-11T18:12:12;13.00;;;6.57;;
40917;SDS011;26644;50.248;19.032;2022-08-11T18:15:32;19.55;;;6.18;;
40917;SDS011;26644;50.248;19.032;2022-08-11T18:18:52;18.00;;;7.35;;
40917;SDS011;26644;50.248;19.032;2022-08-11T18:22:12;9.55;;;5.30;;
40917;SDS011;26644;50.248;19.032;2022-08-11T18:25:37;13.18;;;5.40;;
40917;SDS011;26644;50.248;19.032;2022-08-11T18:29:00;13.18;;;5.97;;
40917;SDS011;26644;50.248;19.032;2022-08-11T18:32:20;13.73;;;5.55;;
40917;SDS011;26644;50.248;19.032;2022-08-11T18:35:43;10.00;;;4.80;;
40917;SDS011;26644;50.248;19.032;2022-08-11T18:39:05;11.90;;;4.32;;
40917;SDS011;26644;50.248;19.032;2022-08-11T18:42:28;10.68;;;5.10;;
40917;SDS011;26644;50.248;19.032;2022-08-11T18:45:51;7.35;;;4.10;;
40917;SDS011;26644;50.248;19.032;2022-08-11T18:52:34;7.97;;;4.32;;
40917;SDS011;26644;50.248;19.032;2022-08-11T18:55:55;14.77;;;4.72;;
40917;SDS011;26644;50.248;19.032;2022-08-11T18:59:17;8.67;;;4.40;;
40917;SDS011;26644;50.248;19.032;2022-08-11T19:02:39;9.65;;;4.65;;
40917;SDS011;26644;50.248;19.032;2022-08-11T19:06:03;7.07;;;4.15;;
40917;SDS011;26644;50.248;19.032;2022-08-11T19:09:25;15.35;;;5.68;;
40917;SDS011;26644;50.248;19.032;2022-08-11T19:12:46;8.90;;;4.60;;
40917;SDS011;26644;50.248;19.032;2022-08-11T19:16:07;8.27;;;5.05;;
40917;SDS011;26644;50.248;19.032;2022-08-11T19:19:27;8.40;;;4.32;;
40917;SDS011;26644;50.248;19.032;2022-08-11T19:22:48;9.43;;;5.72;;
40917;SDS011;26644;50.248;19.032;2022-08-11T19:26:11;9.55;;;7.07;;
40917;SDS011;26644;50.248;19.032;2022-08-11T19:29:32;12.50;;;6.05;;
40917;SDS011;26644;50.248;19.032;2022-08-11T19:32:54;10.15;;;5.50;;
40917;SDS011;26644;50.248;19.032;2022-08-11T19:36:15;11.10;;;5.43;;
40917;SDS011;26644;50.248;19.032;2022-08-11T19:39:36;9.60;;;5.68;;